Time;durP1;ratioP1;P1;durP2;ratioP2;P2;SDS_P1;SDS_P2;PMS_P1;PMS_P2;Temp;Humidity;BMP_temperature;BMP_pressure;BME280_temperature;BME280_humidity;BME280_pressure;Samples;Min_cycle;Max_cycle;Signal;HPM_P1;HPM_P2
2021/04/17 00:00:25;;;;;;;9.33;4.97;;;;;;;4.41;100.00;103082.07;1784352;80;26221;-85
2021/04/17 00:02:55;;;;;;;6.17;4.37;;;;;;;4.30;100.00;103082.56;1784336;80;26377;-84
2021/04/17 00:05:25;;;;;;;8.33;4.57;;;;;;;4.20;100.00;103083.34;1784265;80;26279;-86
2021/04/17 00:07:55;;;;;;;5.53;4.07;;;;;;;4.32;100.00;103083.76;1784300;80;26260;-85
2021/04/17 00:10:25;;;;;;;6.87;3.93;;;;;;;4.08;100.00;103083.48;1784279;80;26226;-85
2021/04/17 00:12:55;;;;;;;5.33;4.20;;;;;;;3.78;100.00;103087.22;1784280;80;26230;-85
2021/04/17 00:15:25;;;;;;;6.33;4.40;;;;;;;3.95;100.00;103086.02;1784265;80;26226;-86
2021/04/17 00:17:56;;;;;;;8.03;4.33;;;;;;;4.03;100.00;103081.30;1784471;80;26234;-86
2021/04/17 00:20:26;;;;;;;5.00;4.13;;;;;;;4.10;100.00;103078.15;1784239;80;26352;-84
2021/04/17 00:22:56;;;;;;;5.40;4.40;;;;;;;4.24;100.00;103074.19;1784249;80;26272;-85
2021/04/17 00:25:26;;;;;;;5.33;3.73;;;;;;;3.74;100.00;103073.00;1784249;80;26351;-84
2021/04/17 00:27:56;;;;;;;5.97;4.10;;;;;;;3.58;100.00;103080.02;1784249;80;26817;-83
2021/04/17 00:30:26;;;;;;;5.67;4.43;;;;;;;3.57;100.00;103075.55;1784217;80;26268;-84
2021/04/17 00:32:56;;;;;;;6.30;3.87;;;;;;;3.55;100.00;103077.10;1784258;80;26264;-83
2021/04/17 00:35:26;;;;;;;6.63;4.67;;;;;;;3.44;100.00;103081.67;1784397;80;26280;-85
2021/04/17 00:37:56;;;;;;;7.30;4.57;;;;;;;3.52;100.00;103082.97;1784291;80;26268;-84
2021/04/17 00:40:26;;;;;;;7.27;4.93;;;;;;;3.61;100.00;103079.64;1784446;80;26716;-85
2021/04/17 00:42:56;;;;;;;6.40;4.40;;;;;;;3.79;100.00;103086.19;1781445;80;26384;-85
2021/04/17 00:45:26;;;;;;;7.17;4.60;;;;;;;3.63;100.00;103076.20;1779332;81;26266;-84
2021/04/17 00:47:55;;;;;;;7.50;4.57;;;;;;;3.76;100.00;103079.69;1779340;81;26238;-85
2021/04/17 00:50:26;;;;;;;7.77;4.70;;;;;;;3.81;100.00;103075.33;1779348;81;26227;-85
2021/04/17 00:52:56;;;;;;;8.17;4.63;;;;;;;3.69;100.00;103069.95;1779234;81;26552;-83
2021/04/17 00:55:26;;;;;;;7.50;4.57;;;;;;;3.74;100.00;103070.77;1779282;81;26270;-84
2021/04/17 00:57:56;;;;;;;7.00;4.43;;;;;;;3.63;100.00;103067.44;1779347;81;26294;-84
2021/04/17 01:00:26;;;;;;;11.00;5.27;;;;;;;3.98;100.00;103073.30;1779431;81;26329;-84
2021/04/17 01:03:00;;;;;;;7.53;5.50;;;;;;;3.88;100.00;103072.70;1779284;81;26380;-84
2021/04/17 01:05:32;;;;;;;7.27;4.90;;;;;;;3.57;100.00;103057.17;1779277;81;26235;-84
2021/04/17 01:08:05;;;;;;;6.77;4.80;;;;;;;3.58;100.00;103059.41;1779314;81;26270;-85
2021/04/17 01:10:38;;;;;;;7.07;4.93;;;;;;;3.60;100.00;103063.66;1779395;81;26216;-84
2021/04/17 01:13:10;;;;;;;7.47;4.73;;;;;;;3.50;100.00;103056.22;1779333;81;26618;-84
2021/04/17 01:15:42;;;;;;;8.07;4.60;;;;;;;3.60;100.00;103070.54;1779368;81;26379;-85
2021/04/17 01:18:14;;;;;;;8.03;4.50;;;;;;;3.59;100.00;103064.70;1779288;81;26710;-83
2021/04/17 01:20:46;;;;;;;7.77;4.63;;;;;;;3.34;100.00;103065.12;1779303;81;26297;-84
2021/04/17 01:23:20;;;;;;;4.83;4.33;;;;;;;3.42;100.00;103063.67;1779310;81;26254;-84
2021/04/17 01:25:53;;;;;;;10.40;4.80;;;;;;;3.40;100.00;103061.09;1779410;81;26308;-84
2021/04/17 01:28:25;;;;;;;6.87;4.77;;;;;;;3.30;100.00;103062.37;1779194;81;26223;-84
2021/04/17 01:30:56;;;;;;;9.23;5.10;;;;;;;3.27;100.00;103049.87;1779324;81;26293;-85
2021/04/17 01:33:32;;;;;;;7.77;4.63;;;;;;;3.24;100.00;103057.63;1779302;81;26640;-85
2021/04/17 01:36:05;;;;;;;8.73;5.00;;;;;;;3.30;100.00;103057.73;1779266;81;26223;-85
2021/04/17 01:38:38;;;;;;;9.87;5.90;;;;;;;3.45;100.00;103058.66;1779287;81;26226;-84
2021/04/17 01:41:11;;;;;;;9.27;5.40;;;;;;;3.33;100.00;103060.14;1779280;81;26270;-84
2021/04/17 01:43:42;;;;;;;10.40;5.60;;;;;;;3.33;100.00;103065.62;1781743;79;26281;-84
2021/04/17 01:46:15;;;;;;;8.47;5.43;;;;;;;3.51;100.00;103058.41;1784479;80;26304;-84
2021/04/17 01:48:48;;;;;;;10.20;5.73;;;;;;;3.47;100.00;103048.32;1784157;80;26235;-83
2021/04/17 01:51:23;;;;;;;6.17;4.73;;;;;;;3.14;100.00;103060.09;1784239;80;26335;-86
2021/04/17 01:53:53;;;;;;;9.53;5.57;;;;;;;3.14;100.00;103061.47;1784423;80;26739;-85
2021/04/17 01:56:26;;;;;;;7.80;4.77;;;;;;;3.02;100.00;103065.67;1784295;80;26689;-85
2021/04/17 01:58:58;;;;;;;6.00;4.37;;;;;;;2.84;100.00;103063.71;1784377;80;26246;-85
2021/04/17 02:01:28;;;;;;;6.73;4.47;;;;;;;2.86;100.00;103067.15;1784395;80;26355;-85
2021/04/17 02:03:58;;;;;;;8.37;4.73;;;;;;;2.79;100.00;103065.28;1784258;80;26760;-84
2021/04/17 02:06:28;;;;;;;9.30;5.40;;;;;;;2.85;100.00;103061.31;1784307;80;26834;-83
2021/04/17 02:08:58;;;;;;;8.17;5.03;;;;;;;2.92;100.00;103067.78;1784305;80;26351;-85
2021/04/17 02:11:28;;;;;;;6.47;4.93;;;;;;;2.93;100.00;103061.77;1784385;80;26261;-85
2021/04/17 02:13:59;;;;;;;8.00;5.40;;;;;;;2.96;100.00;103058.14;1784346;80;26278;-85
2021/04/17 02:16:34;;;;;;;7.30;4.80;;;;;;;2.88;100.00;103058.20;1784289;80;26771;-85
2021/04/17 02:19:07;;;;;;;8.20;5.67;;;;;;;2.81;100.00;103059.97;1784300;80;26241;-85
2021/04/17 02:21:39;;;;;;;7.53;5.17;;;;;;;2.85;100.00;103064.57;1784427;80;26226;-84
2021/04/17 02:24:11;;;;;;;9.13;5.10;;;;;;;2.73;100.00;103052.64;1784409;80;26226;-85
2021/04/17 02:26:43;;;;;;;7.37;5.17;;;;;;;2.75;100.00;103051.92;1784395;80;26685;-84
2021/04/17 02:29:13;;;;;;;6.63;5.37;;;;;;;2.78;100.00;103053.98;1784329;80;26312;-83
2021/04/17 02:31:42;;;;;;;9.80;6.07;;;;;;;2.85;100.00;103052.22;1784274;80;26315;-84
2021/04/17 02:34:13;;;;;;;6.93;5.23;;;;;;;2.90;100.00;103057.52;1784318;80;26234;-85
2021/04/17 02:36:43;;;;;;;7.90;5.50;;;;;;;2.73;100.00;103056.75;1784267;80;26691;-85
2021/04/17 02:39:13;;;;;;;8.10;5.83;;;;;;;2.67;100.00;103053.34;1784268;80;26229;-85
2021/04/17 02:41:43;;;;;;;8.47;5.40;;;;;;;2.62;100.00;103053.02;1784444;80;26221;-85
2021/04/17 02:44:13;;;;;;;10.07;5.90;;;;;;;2.61;100.00;103054.05;1776873;80;26456;-84
2021/04/17 02:46:42;;;;;;;12.27;6.53;;;;;;;2.76;100.00;103056.90;1801176;80;26228;-84
2021/04/17 02:49:12;;;;;;;6.23;5.43;;;;;;;2.74;100.00;103060.33;1801145;79;26228;-84
2021/04/17 02:51:42;;;;;;;8.37;5.77;;;;;;;2.59;100.00;103054.76;1801049;80;26236;-84
2021/04/17 02:54:12;;;;;;;8.03;6.33;;;;;;;2.37;100.00;103056.91;1801045;80;26655;-84
2021/04/17 02:56:42;;;;;;;10.90;6.77;;;;;;;2.52;100.00;103047.43;1801049;79;26228;-85
2021/04/17 02:59:12;;;;;;;12.17;6.90;;;;;;;2.60;100.00;103055.62;1768844;80;26225;-85
2021/04/17 03:01:42;;;;;;;10.53;6.20;;;;;;;2.60;100.00;103049.62;1800925;80;26387;-84
2021/04/17 03:04:15;;;;;;;8.43;6.73;;;;;;;2.92;100.00;103050.45;1801364;80;26728;-84
2021/04/17 03:06:45;;;;;;;8.97;6.70;;;;;;;2.55;100.00;103058.89;1768875;80;26318;-86
2021/04/17 03:09:15;;;;;;;9.10;6.60;;;;;;;2.25;100.00;103062.44;1803749;79;26216;-86
2021/04/17 03:11:45;;;;;;;8.50;6.60;;;;;;;2.16;100.00;103064.35;1768774;81;26370;-85
2021/04/17 03:14:15;;;;;;;12.23;6.87;;;;;;;2.14;100.00;103067.77;1803756;79;26231;-84
2021/04/17 03:16:45;;;;;;;10.77;8.07;;;;;;;2.16;100.00;103064.86;1803802;79;26261;-85
2021/04/17 03:19:15;;;;;;;8.20;6.13;;;;;;;2.20;100.00;103068.45;1803871;79;26228;-85
2021/04/17 03:21:44;;;;;;;8.70;6.83;;;;;;;2.23;100.00;103065.34;1803865;79;26212;-85
2021/04/17 03:24:15;;;;;;;8.63;7.07;;;;;;;2.41;100.00;103060.14;1803994;79;26233;-85
2021/04/17 03:26:45;;;;;;;8.40;6.33;;;;;;;2.45;100.00;103065.61;1768656;81;26218;-85
2021/04/17 03:29:15;;;;;;;10.07;6.80;;;;;;;2.41;100.00;103066.48;1800911;79;26365;-85
2021/04/17 03:32:05;;;;;;;10.90;7.67;;;;;;;2.45;100.00;103065.61;1704834;83;33481;-85
2021/04/17 03:34:35;;;;;;;11.23;7.70;;;;;;;2.43;100.00;103063.58;1735200;83;26801;-84
2021/04/17 03:37:05;;;;;;;8.33;6.53;;;;;;;2.45;100.00;103072.47;1735361;83;26255;-84
2021/04/17 03:39:34;;;;;;;10.47;7.13;;;;;;;2.40;100.00;103071.63;1735304;83;26368;-84
2021/04/17 03:42:05;;;;;;;10.43;7.53;;;;;;;2.46;100.00;103068.19;1735198;83;26842;-85
2021/04/17 03:44:35;;;;;;;10.13;7.07;;;;;;;2.40;100.00;103069.40;1733502;81;26358;-84
2021/04/17 03:47:05;;;;;;;10.63;7.23;;;;;;;2.15;100.00;103076.34;1729641;83;26702;-84
2021/04/17 03:49:35;;;;;;;10.77;6.83;;;;;;;2.15;100.00;103070.86;1729784;83;26256;-84
2021/04/17 03:52:05;;;;;;;10.47;7.10;;;;;;;2.18;100.00;103072.41;1729761;83;26264;-84
2021/04/17 03:54:35;;;;;;;10.50;7.57;;;;;;;2.17;100.00;103070.70;1729723;83;26354;-84
2021/04/17 03:57:06;;;;;;;9.53;7.17;;;;;;;2.29;100.00;103067.91;1729764;83;26264;-84
2021/04/17 03:59:36;;;;;;;11.20;7.47;;;;;;;2.29;100.00;103071.51;1729791;83;26781;-85
2021/04/17 04:02:06;;;;;;;11.37;6.90;;;;;;;2.19;100.00;103072.22;1717714;82;932687;-85
2021/04/17 04:04:36;;;;;;;8.73;7.00;;;;;;;2.23;100.00;103072.20;1796380;80;26263;-86
2021/04/17 04:07:06;;;;;;;10.80;6.77;;;;;;;2.23;100.00;103080.94;1767258;81;26790;-86
2021/04/17 04:09:35;;;;;;;9.03;6.57;;;;;;;2.28;100.00;103077.16;1796752;80;26209;-86
2021/04/17 04:12:09;;;;;;;9.67;6.23;;;;;;;2.32;100.00;103073.55;1767379;81;26229;-86
2021/04/17 04:14:38;;;;;;;11.53;7.20;;;;;;;2.33;100.00;103067.03;1767203;81;26312;-85
2021/04/17 04:17:08;;;;;;;9.97;6.83;;;;;;;2.48;100.00;103068.84;1796784;80;26708;-85
2021/04/17 04:19:38;;;;;;;8.43;6.07;;;;;;;2.59;100.00;103062.99;1767276;81;26755;-84
2021/04/17 04:22:08;;;;;;;12.40;6.40;;;;;;;2.79;100.00;103063.91;1796872;80;26278;-84
2021/04/17 04:24:39;;;;;;;9.10;6.40;;;;;;;2.67;100.00;103072.55;1767412;81;26233;-84
2021/04/17 04:27:09;;;;;;;7.07;5.83;;;;;;;2.45;100.00;103074.70;1767329;81;26237;-84
2021/04/17 04:29:39;;;;;;;10.87;6.43;;;;;;;2.34;100.00;103081.09;1767411;81;26230;-85
2021/04/17 04:32:09;;;;;;;9.93;6.57;;;;;;;2.10;100.00;103073.27;1767332;81;26677;-85
2021/04/17 04:34:39;;;;;;;8.63;6.67;;;;;;;2.00;100.00;103079.48;1767205;81;26233;-85
2021/04/17 04:37:09;;;;;;;8.73;6.67;;;;;;;1.99;100.00;103073.64;1796865;80;26199;-85
2021/04/17 04:39:39;;;;;;;8.00;5.80;;;;;;;2.03;100.00;103075.52;1767255;81;26233;-85
2021/04/17 04:42:10;;;;;;;8.27;6.00;;;;;;;1.98;100.00;103071.92;1767413;81;26264;-85
2021/04/17 04:44:40;;;;;;;8.83;6.00;;;;;;;1.93;100.00;103075.70;1796654;78;26799;-85
2021/04/17 04:47:09;;;;;;;9.63;6.63;;;;;;;1.94;100.00;103076.55;1796689;80;26343;-84
2021/04/17 04:49:39;;;;;;;8.57;6.33;;;;;;;1.98;100.00;103075.18;1767376;81;26222;-85
2021/04/17 04:52:09;;;;;;;9.10;6.30;;;;;;;1.80;100.00;103072.12;1767419;81;26222;-85
2021/04/17 04:54:39;;;;;;;7.93;5.77;;;;;;;1.97;100.00;103077.61;1767255;81;26713;-85
2021/04/17 04:57:11;;;;;;;10.03;6.60;;;;;;;2.12;100.00;103071.73;1796741;80;26268;-85
2021/04/17 04:59:41;;;;;;;8.63;6.70;;;;;;;1.95;100.00;103070.05;1767302;81;26304;-84
2021/04/17 05:02:11;;;;;;;9.43;6.93;;;;;;;1.87;100.00;103071.44;1767363;81;26429;-85
2021/04/17 05:04:41;;;;;;;7.47;6.13;;;;;;;1.88;100.00;103072.65;1796785;80;26206;-85
2021/04/17 05:07:11;;;;;;;9.57;6.10;;;;;;;1.87;100.00;103068.19;1767379;81;26214;-85
2021/04/17 05:09:41;;;;;;;10.37;6.30;;;;;;;1.81;100.00;103063.39;1767361;81;26253;-84
2021/04/17 05:12:12;;;;;;;7.03;5.47;;;;;;;1.87;100.00;103073.67;1767275;81;26217;-84
2021/04/17 05:14:42;;;;;;;5.70;4.53;;;;;;;1.96;100.00;103088.22;1767432;81;26375;-85
2021/04/17 05:17:12;;;;;;;5.30;4.40;;;;;;;1.29;100.00;103077.95;1796752;80;26340;-84
2021/04/17 05:19:42;;;;;;;6.03;4.73;;;;;;;1.08;100.00;103087.16;1767449;81;26365;-84
2021/04/17 05:22:12;;;;;;;4.33;3.73;;;;;;;1.32;100.00;103094.92;1767350;81;26257;-85
2021/04/17 05:24:42;;;;;;;5.27;4.30;;;;;;;1.10;100.00;103093.34;1767393;81;26272;-85
2021/04/17 05:27:12;;;;;;;5.73;4.13;;;;;;;1.01;100.00;103054.66;1767494;81;26344;-84
2021/04/17 05:29:42;;;;;;;7.37;5.03;;;;;;;1.33;100.00;103088.40;1796922;80;26324;-84
2021/04/17 05:32:12;;;;;;;7.23;5.13;;;;;;;1.31;100.00;103088.23;1767468;81;26728;-83
2021/04/17 05:34:42;;;;;;;6.13;5.00;;;;;;;1.42;100.00;103091.13;1796901;80;26776;-84
2021/04/17 05:37:12;;;;;;;9.23;5.57;;;;;;;1.56;100.00;103095.94;1767500;81;26273;-83
2021/04/17 05:39:42;;;;;;;8.27;5.40;;;;;;;1.58;100.00;103094.77;1767458;81;26273;-83
2021/04/17 05:42:12;;;;;;;7.67;5.60;;;;;;;1.67;100.00;103091.51;1767428;81;26355;-84
2021/04/17 05:44:42;;;;;;;9.40;5.77;;;;;;;1.72;100.00;103091.31;1767483;81;26261;-84
2021/04/17 05:47:12;;;;;;;6.43;5.20;;;;;;;1.62;100.00;103092.53;1765026;80;26309;-85
2021/04/17 05:49:42;;;;;;;8.63;5.87;;;;;;;1.79;100.00;103089.62;1764468;81;26441;-83
2021/04/17 05:52:12;;;;;;;8.63;6.23;;;;;;;1.82;100.00;103089.77;1764328;81;26335;-84
2021/04/17 05:54:43;;;;;;;9.70;5.70;;;;;;;1.93;100.00;103091.28;1764325;81;26280;-84
2021/04/17 05:57:13;;;;;;;10.83;6.00;;;;;;;2.13;100.00;103085.78;1764303;81;26226;-83
2021/04/17 05:59:43;;;;;;;10.33;5.90;;;;;;;2.04;100.00;103097.28;1764442;81;26238;-83
2021/04/17 06:02:13;;;;;;;9.73;6.07;;;;;;;1.88;100.00;103103.30;1764536;81;26262;-83
2021/04/17 06:04:43;;;;;;;8.43;5.87;;;;;;;1.88;100.00;103103.30;1764484;81;26397;-84
2021/04/17 06:07:13;;;;;;;5.83;4.97;;;;;;;1.88;100.00;103094.58;1764342;81;26237;-82
2021/04/17 06:09:42;;;;;;;6.73;4.97;;;;;;;2.11;100.00;103094.69;1764294;81;26273;-84
2021/04/17 06:12:14;;;;;;;6.90;5.17;;;;;;;2.34;100.00;103090.69;1764233;81;26273;-83
2021/04/17 06:14:44;;;;;;;10.23;5.60;;;;;;;2.25;100.00;103098.95;1764211;81;26669;-83
2021/04/17 06:17:14;;;;;;;9.43;5.40;;;;;;;2.39;100.00;103090.52;1764326;81;26662;-83
2021/04/17 06:19:44;;;;;;;7.40;5.00;;;;;;;2.63;100.00;103086.30;1764516;81;26685;-83
2021/04/17 06:22:14;;;;;;;12.60;5.20;;;;;;;2.49;100.00;103092.52;1764307;81;26218;-82
2021/04/17 06:24:43;;;;;;;7.73;4.97;;;;;;;2.66;100.00;103085.92;1764376;81;26285;-82
2021/04/17 06:27:14;;;;;;;7.93;5.13;;;;;;;2.95;100.00;103083.05;1764247;81;26233;-83
2021/04/17 06:29:43;;;;;;;9.53;5.47;;;;;;;2.91;100.00;103085.28;1764355;81;26289;-82
2021/04/17 06:32:13;;;;;;;9.47;4.80;;;;;;;2.82;100.00;103085.02;1764479;81;26219;-82
2021/04/17 06:34:43;;;;;;;6.47;4.70;;;;;;;2.98;100.00;103086.29;1764481;81;26402;-84
2021/04/17 06:37:13;;;;;;;14.87;5.17;;;;;;;3.09;100.00;103085.86;1764339;81;26673;-83
2021/04/17 06:39:43;;;;;;;8.60;5.20;;;;;;;3.14;100.00;103083.43;1764259;81;26637;-84
2021/04/17 06:42:15;;;;;;;9.63;5.17;;;;;;;3.19;100.00;103080.14;1764291;81;26233;-84
2021/04/17 06:44:46;;;;;;;10.67;5.07;;;;;;;3.30;100.00;103078.34;1764382;81;26649;-84
2021/04/17 06:47:17;;;;;;;10.47;5.20;;;;;;;3.56;100.00;103073.84;1764710;80;26351;-84
2021/04/17 06:49:47;;;;;;;10.60;5.60;;;;;;;3.49;100.00;103077.86;1764343;81;26237;-84
2021/04/17 06:52:17;;;;;;;9.03;5.83;;;;;;;3.74;100.00;103079.02;1764358;81;26242;-84
2021/04/17 06:54:48;;;;;;;11.07;6.00;;;;;;;3.68;100.00;103079.22;1764216;81;26309;-84
2021/04/17 06:57:20;;;;;;;7.40;5.03;;;;;;;3.75;100.00;103080.21;1764267;81;26676;-84
2021/04/17 06:59:50;;;;;;;7.47;5.10;;;;;;;4.01;100.00;103077.89;1764228;81;26354;-84
2021/04/17 07:02:20;;;;;;;9.10;5.20;;;;;;;4.02;100.00;103081.50;1764323;81;26701;-82
2021/04/17 07:04:51;;;;;;;6.60;4.47;;;;;;;3.91;100.00;103075.92;1764657;81;26697;-82
2021/04/17 07:07:22;;;;;;;8.53;4.87;;;;;;;4.17;100.00;103072.73;1764278;81;26764;-81
2021/04/17 07:09:53;;;;;;;6.07;4.03;;;;;;;4.27;100.00;103071.09;1764258;81;26799;-82
2021/04/17 07:12:23;;;;;;;7.63;4.60;;;;;;;4.77;100.00;103067.52;1764372;81;26262;-81
2021/04/17 07:14:54;;;;;;;8.97;4.60;;;;;;;4.85;100.00;103070.16;1764407;81;26323;-90
2021/04/17 07:17:24;;;;;;;7.37;4.60;;;;;;;4.98;100.00;103064.30;1764490;81;26711;-79
2021/04/17 07:19:59;;;;;;;5.97;4.30;;;;;;;5.24;100.00;103060.13;1764374;81;26688;-81
2021/04/17 07:22:31;;;;;;;7.90;4.17;;;;;;;5.30;100.00;103059.35;1764324;81;26307;-83
2021/04/17 07:25:18;;;;;;;7.13;4.70;;;;;;;5.31;100.00;103049.48;1764519;81;26234;-80
2021/04/17 07:27:49;;;;;;;5.57;4.40;;;;;;;5.34;100.00;103049.12;1742098;81;26219;-82
2021/04/17 07:30:32;;;;;;;7.90;4.50;;;;;;;5.49;100.00;103053.16;1764394;81;26241;-82
2021/04/17 07:33:23;;;;;;;6.60;4.33;;;;;;;5.69;100.00;103047.84;1764485;81;26276;-82
2021/04/17 07:35:53;;;;;;;8.67;4.73;;;;;;;5.62;100.00;103054.66;1732956;81;26275;-81
2021/04/17 07:38:25;;;;;;;8.23;4.57;;;;;;;6.12;100.00;103047.25;1788336;80;26210;-81
2021/04/17 07:41:07;;;;;;;7.63;4.10;;;;;;;6.52;100.00;103042.79;1788467;80;26284;-87
2021/04/17 07:43:49;;;;;;;7.83;4.77;;;;;;;6.48;100.00;103047.88;1764262;81;26777;-83
2021/04/17 07:46:23;;;;;;;7.93;4.50;;;;;;;6.73;100.00;103044.05;1764349;81;26689;-80
2021/04/17 07:48:55;;;;;;;5.80;4.00;;;;;;;7.02;100.00;103039.58;1764212;80;26328;-79
2021/04/17 07:51:25;;;;;;;5.40;3.90;;;;;;;7.33;100.00;103037.11;1734678;82;26315;-79
2021/04/17 07:53:54;;;;;;;6.20;4.00;;;;;;;7.12;100.00;103044.19;1764251;81;26681;-78
2021/04/17 07:56:30;;;;;;;8.87;3.93;;;;;;;7.29;100.00;103041.36;1764236;81;26328;-78
2021/04/17 07:59:04;;;;;;;8.03;4.33;;;;;;;7.59;100.00;103032.66;1764175;81;26402;-78
2021/04/17 08:01:35;;;;;;;6.87;3.87;;;;;;;7.79;100.00;103034.36;1764252;81;26726;-78
2021/04/17 08:04:05;;;;;;;7.83;4.10;;;;;;;8.08;100.00;103029.45;1764212;81;26270;-77
2021/04/17 08:06:37;;;;;;;7.93;3.83;;;;;;;8.00;100.00;103026.35;1764262;81;26684;-77
2021/04/17 08:09:10;;;;;;;6.67;3.93;;;;;;;8.17;100.00;103023.45;1764327;81;26230;-77
2021/04/17 08:11:40;;;;;;;7.80;3.97;;;;;;;8.34;100.00;103019.73;1764299;81;26666;-77
2021/04/17 08:14:11;;;;;;;5.03;3.27;;;;;;;8.63;100.00;103015.05;1764281;81;26708;-78
2021/04/17 08:16:42;;;;;;;5.13;3.33;;;;;;;8.73;100.00;103010.39;1764283;81;26246;-78
2021/04/17 08:19:12;;;;;;;4.77;3.30;;;;;;;8.82;100.00;103007.69;1764471;81;26276;-78
2021/04/17 08:21:42;;;;;;;5.20;3.10;;;;;;;8.86;100.00;103008.09;1764327;81;26257;-78
2021/04/17 08:24:13;;;;;;;4.77;2.70;;;;;;;9.11;100.00;103004.88;1764118;81;26704;-78
2021/04/17 08:26:44;;;;;;;4.03;2.60;;;;;;;9.12;100.00;103004.64;1764216;81;26269;-78
2021/04/17 08:29:15;;;;;;;6.83;3.43;;;;;;;9.41;100.00;103003.14;1764347;81;26405;-80
2021/04/17 08:31:47;;;;;;;4.73;2.60;;;;;;;9.78;100.00;103003.28;1733370;83;26319;-78
2021/04/17 08:34:19;;;;;;;4.47;2.50;;;;;;;9.83;100.00;102998.75;1764206;81;26309;-79
2021/04/17 08:36:51;;;;;;;4.90;2.67;;;;;;;9.89;100.00;102999.20;1764142;81;26728;-78
2021/04/17 08:39:43;;;;;;;4.47;2.07;;;;;;;9.74;100.00;102997.88;1764350;81;26241;-78
2021/04/17 08:42:19;;;;;;;6.57;2.00;;;;;;;10.00;100.00;102990.68;1764199;81;26308;-78
2021/04/17 08:44:50;;;;;;;4.47;2.23;;;;;;;10.11;100.00;102985.75;1764403;81;26315;-79
2021/04/17 08:47:52;;;;;;;2.70;2.10;;;;;;;10.25;100.00;102981.78;1764191;81;26245;-79
2021/04/17 08:50:33;;;;;;;3.83;2.20;;;;;;;10.15;100.00;102981.45;1764331;81;26343;-80
2021/04/17 08:53:07;;;;;;;3.80;1.93;;;;;;;10.37;100.00;102982.70;1764320;81;26230;-80
2021/04/17 08:55:48;;;;;;;6.30;1.87;;;;;;;10.66;100.00;102974.64;1736448;81;26703;-79
2021/04/17 08:58:20;;;;;;;2.07;1.23;;;;;;;10.66;100.00;102977.41;1764316;81;26238;-77
2021/04/17 09:01:11;;;;;;;2.30;1.53;;;;;;;10.79;100.00;102974.45;1764182;81;26749;-78
2021/04/17 09:03:43;;;;;;;3.17;1.80;;;;;;;11.29;100.00;102985.61;1764119;81;26261;-78
2021/04/17 09:06:33;;;;;;;2.17;1.43;;;;;;;11.12;100.00;102976.25;1764321;81;26724;-79
2021/04/17 09:09:39;;;;;;;3.60;1.30;;;;;;;11.44;100.00;102978.18;1736490;82;26295;-79
2021/04/17 09:12:29;;;;;;;2.23;1.20;;;;;;;11.29;96.49;102977.27;1736601;83;26353;-79
2021/04/17 09:15:02;;;;;;;2.23;1.00;;;;;;;11.42;96.96;102972.02;1764283;81;26799;-79
2021/04/17 09:17:40;;;;;;;2.00;1.23;;;;;;;11.21;94.76;102976.75;1764183;81;26241;-77
2021/04/17 09:20:12;;;;;;;1.10;1.03;;;;;;;10.85;88.27;102975.77;1764311;81;26630;-77
2021/04/17 09:22:49;;;;;;;1.50;1.20;;;;;;;11.34;88.31;102976.52;1764238;81;26246;-77
2021/04/17 09:25:41;;;;;;;1.70;1.10;;;;;;;10.86;83.03;102971.92;1764330;81;26369;-77
2021/04/17 09:28:14;;;;;;;1.20;0.80;;;;;;;10.99;84.21;102962.53;1764262;81;26296;-79
2021/04/17 09:30:46;;;;;;;1.73;0.90;;;;;;;10.89;81.97;102964.48;1764231;81;26294;-78
2021/04/17 09:33:16;;;;;;;1.00;0.90;;;;;;;11.27;85.81;102967.44;1736442;82;26483;-79
2021/04/17 09:35:46;;;;;;;1.47;1.00;;;;;;;11.33;89.33;102956.76;1764192;81;26237;-78
2021/04/17 09:38:18;;;;;;;1.20;1.00;;;;;;;11.70;72.38;102954.61;1764351;81;26242;-79
2021/04/17 09:40:50;;;;;;;1.80;1.33;;;;;;;11.56;65.33;102958.16;1764218;81;26245;-79
2021/04/17 09:43:28;;;;;;;1.03;0.83;;;;;;;11.02;72.15;102950.93;1764213;81;26307;-78
2021/04/17 09:46:01;;;;;;;1.93;1.00;;;;;;;11.17;77.69;102944.36;1764189;81;26303;-78
2021/04/17 09:48:40;;;;;;;1.77;1.03;;;;;;;11.18;80.72;102943.28;1764192;80;26257;-79
2021/04/17 09:51:19;;;;;;;1.87;1.10;;;;;;;11.38;78.85;102941.02;1764118;81;26709;-79
2021/04/17 09:53:50;;;;;;;2.03;1.30;;;;;;;11.25;76.82;102936.24;1764126;81;26316;-79
2021/04/17 09:56:29;;;;;;;1.47;1.10;;;;;;;11.32;81.93;102940.60;1764321;81;26230;-79
2021/04/17 09:59:01;;;;;;;1.13;1.03;;;;;;;11.39;82.87;102932.98;1764302;81;26242;-78
2021/04/17 10:01:31;;;;;;;3.37;1.10;;;;;;;11.21;74.25;102929.46;1736234;81;26703;-78
2021/04/17 10:04:03;;;;;;;2.60;1.20;;;;;;;11.10;78.25;102928.33;1764232;81;26257;-79
2021/04/17 10:06:35;;;;;;;1.77;1.07;;;;;;;11.25;73.05;102929.28;1764203;81;26229;-79
2021/04/17 10:09:16;;;;;;;1.20;0.93;;;;;;;11.42;80.11;102928.31;1764215;81;26272;-79
2021/04/17 10:11:46;;;;;;;2.00;1.13;;;;;;;11.24;77.33;102922.02;1764178;81;26332;-78
2021/04/17 10:14:18;;;;;;;1.77;1.10;;;;;;;11.52;77.22;102929.66;1764359;81;26355;-78
2021/04/17 10:16:49;;;;;;;1.40;1.00;;;;;;;11.48;77.98;102931.23;1764198;81;26304;-78
2021/04/17 10:19:20;;;;;;;1.90;1.00;;;;;;;11.63;77.93;102921.87;1764443;81;26233;-79
2021/04/17 10:21:56;;;;;;;0.73;0.73;;;;;;;11.74;75.62;102916.33;1764356;81;26759;-79
2021/04/17 10:24:29;;;;;;;3.03;1.07;;;;;;;11.87;76.03;102920.80;1736797;82;26275;-79
2021/04/17 10:27:04;;;;;;;1.63;0.90;;;;;;;11.78;72.71;102920.86;1733116;83;26253;-79
2021/04/17 10:29:43;;;;;;;0.70;0.70;;;;;;;11.81;65.24;102914.25;1754578;82;26738;-79
2021/04/17 10:32:15;;;;;;;1.60;1.00;;;;;;;11.82;74.75;102913.17;1754373;82;26688;-79
2021/04/17 10:34:47;;;;;;;2.37;1.00;;;;;;;11.78;69.81;102918.93;1754366;82;26262;-79
2021/04/17 10:37:20;;;;;;;0.80;0.80;;;;;;;11.73;64.69;102912.38;1796724;80;26209;-79
2021/04/17 10:40:02;;;;;;;1.27;0.80;;;;;;;12.12;74.02;102906.05;1764384;81;26645;-79
2021/04/17 10:43:06;;;;;;;1.23;1.00;;;;;;;11.82;71.89;102909.00;1764302;81;26238;-79
2021/04/17 10:45:42;;;;;;;1.00;0.90;;;;;;;11.98;67.64;102901.00;1716014;82;26694;-79
2021/04/17 10:48:14;;;;;;;1.37;0.90;;;;;;;11.89;72.12;102897.75;1788642;80;26210;-79
2021/04/17 10:50:47;;;;;;;1.10;1.00;;;;;;;12.19;79.69;102899.78;1764307;80;26366;-79
2021/04/17 10:53:19;;;;;;;2.60;1.30;;;;;;;12.05;68.95;102898.92;1736054;81;26243;-79
2021/04/17 10:55:51;;;;;;;1.33;1.00;;;;;;;11.77;68.60;102893.56;1764448;81;26241;-78
2021/04/17 10:58:27;;;;;;;0.90;0.80;;;;;;;11.77;66.63;102892.17;1764260;81;26242;-79
2021/04/17 11:01:00;;;;;;;2.13;1.03;;;;;;;11.82;72.13;102898.40;1764271;81;26237;-79
2021/04/17 11:03:32;;;;;;;1.40;1.00;;;;;;;12.05;69.78;102889.17;1764266;81;26350;-79
2021/04/17 11:06:12;;;;;;;1.90;1.00;;;;;;;12.27;80.28;102890.20;1764281;81;26322;-79
2021/04/17 11:08:43;;;;;;;2.23;1.23;;;;;;;12.36;73.81;102887.88;1764310;81;26369;-77
2021/04/17 11:11:15;;;;;;;2.73;1.13;;;;;;;12.15;70.19;102880.47;1764350;81;26261;-77
2021/04/17 11:13:46;;;;;;;3.00;1.27;;;;;;;12.20;70.81;102881.13;1764261;81;26743;-77
2021/04/17 11:16:16;;;;;;;1.40;1.30;;;;;;;12.22;72.16;102876.17;1764386;81;26821;-77
2021/04/17 11:18:46;;;;;;;2.00;1.40;;;;;;;12.31;66.19;102867.72;1764272;81;26469;-77
2021/04/17 11:21:17;;;;;;;1.77;1.37;;;;;;;12.13;75.43;102870.13;1764274;81;26351;-77
2021/04/17 11:23:52;;;;;;;1.73;1.13;;;;;;;11.98;71.09;102871.19;1764363;81;26280;-77
2021/04/17 11:26:23;;;;;;;2.90;1.40;;;;;;;11.53;69.91;102869.59;1764282;81;26297;-77
2021/04/17 11:28:55;;;;;;;1.97;1.20;;;;;;;12.06;70.08;102864.41;1764262;81;26254;-77
2021/04/17 11:31:26;;;;;;;1.73;1.30;;;;;;;11.75;68.56;102867.91;1764279;81;26692;-78
2021/04/17 11:33:59;;;;;;;1.53;1.37;;;;;;;12.30;77.81;102864.08;1764315;81;26343;-78
2021/04/17 11:36:31;;;;;;;1.60;1.50;;;;;;;12.58;79.92;102857.65;1764220;81;26646;-77
2021/04/17 11:39:01;;;;;;;4.87;1.77;;;;;;;12.32;68.67;102851.30;1764281;81;26249;-78
2021/04/17 11:41:32;;;;;;;2.30;2.03;;;;;;;12.20;71.13;102850.48;1764315;81;26242;-78
2021/04/17 11:44:02;;;;;;;2.10;1.60;;;;;;;12.20;81.17;102851.32;1764397;81;26312;-78
2021/04/17 11:46:32;;;;;;;4.10;1.57;;;;;;;11.99;65.21;102845.58;1764313;81;26672;-78